createdAt,value
2023-03-19T00:17:43.089Z,6.50
2023-03-19T00:20:11.929Z,6.50
2023-03-19T01:51:11.643Z,6.30
2023-03-19T01:53:41.336Z,6.30
2023-03-19T01:56:25.738Z,6.30
2023-03-19T01:58:56.930Z,6.30
2023-03-19T02:03:52.994Z,6.30
2023-03-19T02:06:23.955Z,6.20
2023-03-19T02:08:52.497Z,6.20
2023-03-19T02:16:16.080Z,6.20
2023-03-19T02:21:14.912Z,6.20
2023-03-19T02:23:47.244Z,6.20
2023-03-19T02:26:23.254Z,6.10
2023-03-19T02:28:52.977Z,6.10
2023-03-19T02:31:20.980Z,6.00
2023-03-19T02:34:22.981Z,6.00
2023-03-19T02:36:56.659Z,6.10
2023-03-19T02:39:50.093Z,6.10
2023-03-19T02:42:19.272Z,6.00
2023-03-19T04:13:12.909Z,6.30
2023-03-19T04:27:58.618Z,6.30
2023-03-19T04:40:17.109Z,6.30
2023-03-19T04:50:10.489Z,6.30
2023-03-19T04:55:05.967Z,6.30
2023-03-19T05:51:36.866Z,6.20
2023-03-19T06:30:56.138Z,6.50
2023-03-19T07:42:16.655Z,7.40
2023-03-19T08:02:13.355Z,7.80
2023-03-19T09:03:45.061Z,10.50
2023-03-19T09:06:14.436Z,10.60
2023-03-19T09:30:51.499Z,11.20
2023-03-19T09:33:20.295Z,11.30
2023-03-19T09:35:53.243Z,11.20
2023-03-19T09:38:22.186Z,11.30
2023-03-19T09:41:03.606Z,11.40
2023-03-19T09:43:42.633Z,11.30
2023-03-19T09:46:19.523Z,11.30
2023-03-19T09:49:04.216Z,11.40
2023-03-19T09:51:41.993Z,11.60
2023-03-19T09:54:40.297Z,11.70
2023-03-19T09:57:09.533Z,11.80
2023-03-19T10:02:29.049Z,11.80
2023-03-19T10:05:08.235Z,12.00
2023-03-19T10:10:43.242Z,12.10
2023-03-19T10:13:46.846Z,12.10
2023-03-19T10:16:24.082Z,12.10
2023-03-19T10:18:54.094Z,12.20
2023-03-19T10:21:29.895Z,12.20
2023-03-19T10:24:41.151Z,12.20
2023-03-19T10:27:17.173Z,12.20
2023-03-19T10:32:19.840Z,12.40
2023-03-19T10:34:53.163Z,12.50
2023-03-19T10:37:23.009Z,12.50
2023-03-19T10:39:57.657Z,12.50
2023-03-19T10:42:56.270Z,12.20
2023-03-19T10:45:34.921Z,12.50
2023-03-19T10:48:04.000Z,12.50
2023-03-19T10:50:49.723Z,12.60
2023-03-19T10:55:53.688Z,12.80
2023-03-19T10:58:27.589Z,12.80
2023-03-19T11:01:10.802Z,12.80
2023-03-19T11:03:40.962Z,12.80
2023-03-19T11:08:37.632Z,12.80
2023-03-19T11:13:36.089Z,12.70
2023-03-19T11:16:04.372Z,12.70
2023-03-19T11:18:37.033Z,12.60
2023-03-19T11:21:24.037Z,12.80
2023-03-19T11:24:00.500Z,12.80
2023-03-19T11:29:03.643Z,13.10
2023-03-19T11:32:08.642Z,13.40
2023-03-19T11:35:10.783Z,13.20
2023-03-19T11:37:56.248Z,13.30
2023-03-19T11:40:27.038Z,13.50
2023-03-19T11:43:00.482Z,13.30
2023-03-19T11:45:42.331Z,13.50
2023-03-19T11:48:34.936Z,13.50
2023-03-19T11:53:52.233Z,13.60
2023-03-19T11:56:36.508Z,13.60
2023-03-19T11:59:32.066Z,13.50
2023-03-19T12:04:54.141Z,13.20
2023-03-19T12:07:30.321Z,13.40
2023-03-19T12:10:18.523Z,13.20
2023-03-19T12:13:08.429Z,13.50
2023-03-19T12:15:52.787Z,13.20
2023-03-19T12:19:01.196Z,13.20
2023-03-19T12:21:54.740Z,13.10
2023-03-19T12:24:48.662Z,13.20
2023-03-19T12:27:36.550Z,13.10
2023-03-19T12:30:18.377Z,13.20
2023-03-19T12:33:03.452Z,13.20
2023-03-19T12:35:35.546Z,13.30
2023-03-19T12:41:16.316Z,13.60
2023-03-19T12:44:09.848Z,13.60
2023-03-19T12:46:44.237Z,13.70
2023-03-19T12:49:31.648Z,13.80
2023-03-19T12:52:11.864Z,13.80
2023-03-19T12:54:49.048Z,13.90
2023-03-19T12:57:24.674Z,13.90
2023-03-19T12:59:57.995Z,14.00
2023-03-19T13:02:37.200Z,14.00
2023-03-19T13:08:00.138Z,14.10
2023-03-19T13:15:33.471Z,14.40
2023-03-19T13:18:36.624Z,14.40
2023-03-19T13:21:24.707Z,14.20
2023-03-19T13:24:16.435Z,14.20
2023-03-19T13:26:45.248Z,14.20
2023-03-19T13:29:14.768Z,14.20
2023-03-19T13:34:21.461Z,14.20
2023-03-19T13:36:58.053Z,14.30
2023-03-19T13:39:28.991Z,14.40
2023-03-19T13:42:11.041Z,14.30
2023-03-19T13:44:43.100Z,14.40
2023-03-19T13:47:33.618Z,14.20
2023-03-19T13:50:08.595Z,14.20
2023-03-19T13:52:44.817Z,14.40
2023-03-19T13:55:31.164Z,14.50
2023-03-19T13:58:16.155Z,14.40
2023-03-19T14:00:46.056Z,14.60
2023-03-19T14:03:28.984Z,14.80
2023-03-19T14:05:57.671Z,14.70
2023-03-19T14:08:27.818Z,14.70
2023-03-19T14:11:00.272Z,14.80
2023-03-19T14:13:42.886Z,14.70
2023-03-19T14:16:22.248Z,14.90
2023-03-19T14:21:54.743Z,14.70
2023-03-19T14:24:54.804Z,14.80
2023-03-19T14:27:22.743Z,14.30
2023-03-19T14:29:50.584Z,14.60
2023-03-19T14:32:21.574Z,14.70
2023-03-19T14:34:49.846Z,14.70
2023-03-19T14:37:22.448Z,14.70
2023-03-19T14:40:08.843Z,14.60
2023-03-19T14:42:41.390Z,14.70
2023-03-19T14:45:32.770Z,14.80
2023-03-19T14:48:23.451Z,14.80
2023-03-19T14:51:02.885Z,14.70
2023-03-19T14:53:41.625Z,15.00
2023-03-19T14:56:18.939Z,14.70
2023-03-19T14:58:54.291Z,14.30
2023-03-19T15:01:23.369Z,14.50
2023-03-19T15:04:03.363Z,14.50
2023-03-19T15:06:35.101Z,14.60
2023-03-19T15:12:13.588Z,14.60
2023-03-19T15:14:48.885Z,14.20
2023-03-19T15:17:28.217Z,15.00
2023-03-19T15:19:58.376Z,14.40
2023-03-19T15:22:34.736Z,14.30
2023-03-19T15:25:13.935Z,14.50
2023-03-19T15:30:24.838Z,14.50
2023-03-19T15:38:08.919Z,14.30
2023-03-19T15:45:34.003Z,14.10
2023-03-19T15:48:14.172Z,14.20
2023-03-19T15:50:44.532Z,14.10
2023-03-19T15:53:22.387Z,14.10
2023-03-19T15:55:54.182Z,14.10
2023-03-19T15:58:24.842Z,14.00
2023-03-19T16:00:54.147Z,13.90
2023-03-19T16:03:27.671Z,13.90
2023-03-19T16:06:06.662Z,13.70
2023-03-19T16:11:37.718Z,13.80
2023-03-19T16:14:10.664Z,13.90
2023-03-19T16:16:40.722Z,13.90
2023-03-19T16:19:48.248Z,13.70
2023-03-19T16:22:17.974Z,13.60
2023-03-19T16:24:46.779Z,13.60
2023-03-19T16:27:19.714Z,13.30
2023-03-19T16:29:58.227Z,13.60
2023-03-19T16:32:29.742Z,13.70
2023-03-19T16:37:44.420Z,13.30
2023-03-19T16:40:14.994Z,13.20
2023-03-19T16:45:15.377Z,13.60
2023-03-19T16:47:47.065Z,13.40
2023-03-19T16:52:43.864Z,13.40
2023-03-19T16:55:19.303Z,13.40
2023-03-19T16:57:50.771Z,13.30
2023-03-19T17:00:18.140Z,13.40
2023-03-19T17:05:16.411Z,12.90
2023-03-19T17:10:21.053Z,13.00
2023-03-19T17:12:50.374Z,12.80
2023-03-19T17:15:38.717Z,12.90
2023-03-19T17:18:14.189Z,12.60
2023-03-19T17:21:06.352Z,12.70
2023-03-19T17:26:03.196Z,12.60
2023-03-19T17:33:29.769Z,12.40
2023-03-19T17:35:58.545Z,12.30
2023-03-19T17:38:32.004Z,12.20
2023-03-19T17:45:55.429Z,12.00
2023-03-19T17:48:26.108Z,11.90
2023-03-19T17:50:58.318Z,11.90
2023-03-19T17:58:22.634Z,11.80
2023-03-19T18:00:51.474Z,11.60
2023-03-19T18:03:21.810Z,11.60
2023-03-19T18:05:50.716Z,11.50
2023-03-19T18:08:20.665Z,11.40
2023-03-19T18:15:44.844Z,11.20
2023-03-19T18:18:21.380Z,11.50
2023-03-19T18:25:45.276Z,11.00
2023-03-19T18:30:41.392Z,10.90
2023-03-19T18:33:17.946Z,10.90
2023-03-19T18:38:21.953Z,10.70
2023-03-19T18:45:45.702Z,10.50
2023-03-19T18:48:27.933Z,10.40
2023-03-19T18:50:56.231Z,10.40
2023-03-19T18:58:21.894Z,10.30
2023-03-19T19:00:49.964Z,10.30
2023-03-19T19:03:19.107Z,10.20
2023-03-19T19:08:18.961Z,10.20
2023-03-19T19:10:51.876Z,10.20
2023-03-19T19:13:24.770Z,10.10
2023-03-19T19:15:52.763Z,10.10
2023-03-19T19:18:25.857Z,10.00
2023-03-19T19:20:53.969Z,10.00
2023-03-19T19:23:22.498Z,9.90
2023-03-19T19:25:52.126Z,9.80
2023-03-19T19:28:21.365Z,9.70
2023-03-19T19:30:49.498Z,9.60
2023-03-19T19:33:21.065Z,9.60
2023-03-19T19:40:45.121Z,9.60
2023-03-19T19:43:31.435Z,9.50
2023-03-19T19:45:59.036Z,9.70
2023-03-19T19:48:28.382Z,9.70
2023-03-19T19:50:56.611Z,9.60
2023-03-19T19:53:27.474Z,9.50
2023-03-19T19:58:25.435Z,9.40
2023-03-19T20:03:32.982Z,9.30
2023-03-19T20:06:01.498Z,9.30
2023-03-19T20:10:57.204Z,9.30
2023-03-19T20:13:32.668Z,9.30
2023-03-19T20:16:01.038Z,9.20
2023-03-19T20:18:30.945Z,9.20
2023-03-19T20:28:32.409Z,9.30
2023-03-19T20:35:55.144Z,9.10
2023-03-19T20:40:59.066Z,9.30
2023-03-19T20:45:57.244Z,9.20
2023-03-19T20:48:25.882Z,9.30
2023-03-19T20:58:37.037Z,9.50
2023-03-19T21:03:32.342Z,9.50
2023-03-19T21:06:20.416Z,9.60
2023-03-19T21:08:50.892Z,9.60
2023-03-19T21:11:21.070Z,9.70
2023-03-19T21:13:49.950Z,9.60
2023-03-19T21:16:24.388Z,9.50
2023-03-19T21:21:27.115Z,9.40
2023-03-19T21:24:05.885Z,9.10
2023-03-19T21:26:37.191Z,9.40
2023-03-19T21:29:08.575Z,9.50
2023-03-19T21:41:32.855Z,9.10
2023-03-19T21:44:08.036Z,9.10
2023-03-19T21:56:33.492Z,8.80
2023-03-19T21:59:03.222Z,9.00
2023-03-19T22:03:58.047Z,9.00
2023-03-19T22:06:25.372Z,9.00
2023-03-19T22:11:30.067Z,9.10
2023-03-19T22:14:20.151Z,9.10
2023-03-19T22:16:52.472Z,9.10
2023-03-19T22:21:47.189Z,8.80
2023-03-19T22:26:43.841Z,9.00
2023-03-19T22:29:17.513Z,9.00
2023-03-19T22:34:16.430Z,9.00
2023-03-19T22:41:40.981Z,9.00
2023-03-19T22:44:13.006Z,9.00
2023-03-19T22:49:15.442Z,9.00
2023-03-19T22:54:12.163Z,9.10
2023-03-19T23:01:47.552Z,9.10
2023-03-19T23:04:23.131Z,9.20
2023-03-19T23:09:20.715Z,9.00
2023-03-19T23:19:38.358Z,8.90
2023-03-19T23:22:07.566Z,8.90
2023-03-19T23:29:35.485Z,8.90
2023-03-19T23:41:57.782Z,8.90
2023-03-19T23:46:53.744Z,8.90
2023-03-19T23:49:32.591Z,8.90
2023-03-19T23:52:00.874Z,8.90
2023-03-19T23:54:33.518Z,8.90
2023-03-19T23:57:03.241Z,8.90
2023-03-19T23:59:34.772Z,8.90
